createdAt,value
2022-08-11T00:00:39.510Z,87.11
2022-08-11T00:05:52.869Z,87.51
2022-08-11T00:11:03.225Z,87.80
2022-08-11T00:16:17.441Z,88.10
2022-08-11T00:22:02.875Z,88.55
2022-08-11T00:26:56.958Z,88.49
2022-08-11T00:32:07.678Z,88.41
2022-08-11T00:37:23.966Z,88.54
2022-08-11T00:42:50.075Z,89.46
2022-08-11T00:48:06.612Z,89.16
2022-08-11T00:53:38.576Z,89.81
2022-08-11T00:59:36.026Z,88.43
2022-08-11T01:05:43.973Z,89.11
2022-08-11T01:11:39.019Z,88.50
2022-08-11T01:18:08.747Z,89.39
2022-08-11T01:24:03.371Z,89.81
2022-08-11T01:30:04.788Z,89.13
2022-08-11T01:36:24.130Z,88.80
2022-08-11T01:42:25.029Z,89.99
2022-08-11T01:47:54.757Z,89.76
2022-08-11T01:53:24.192Z,88.60
2022-08-11T01:58:45.346Z,89.18
2022-08-11T02:04:04.865Z,88.80
2022-08-11T02:09:27.343Z,88.88
2022-08-11T02:14:53.519Z,89.96
2022-08-11T02:20:39.626Z,89.64
2022-08-11T02:26:00.882Z,89.86
2022-08-11T02:32:24.610Z,89.96
2022-08-11T02:37:29.869Z,90.60
2022-08-11T02:43:07.231Z,90.88
2022-08-11T02:48:48.814Z,90.51
2022-08-11T02:54:11.056Z,90.20
2022-08-11T02:59:48.397Z,90.35
2022-08-11T03:05:17.821Z,90.40
2022-08-11T03:10:34.212Z,91.05
2022-08-11T03:16:10.962Z,90.14
2022-08-11T03:21:24.902Z,90.34
2022-08-11T03:27:11.425Z,90.77
2022-08-11T03:32:30.593Z,91.21
2022-08-11T03:37:53.366Z,90.58
2022-08-11T03:43:15.078Z,89.67
2022-08-11T03:48:29.867Z,90.13
2022-08-11T03:53:57.777Z,90.44
2022-08-11T03:59:39.846Z,90.80
2022-08-11T04:05:31.023Z,91.23
2022-08-11T04:11:29.717Z,93.44
2022-08-11T04:16:46.513Z,94.04
2022-08-11T04:22:37.701Z,95.15
2022-08-11T04:28:50.202Z,96.27
2022-08-11T04:34:39.546Z,98.62
2022-08-11T04:40:08.173Z,100.00
2022-08-11T04:45:55.046Z,100.00
2022-08-11T04:51:44.465Z,100.00
2022-08-11T04:57:13.164Z,100.00
2022-08-11T05:02:59.446Z,100.00
2022-08-11T05:08:52.385Z,100.00
2022-08-11T05:14:51.184Z,100.00
2022-08-11T05:20:14.829Z,100.00
2022-08-11T05:26:43.289Z,100.00
2022-08-11T05:31:35.428Z,100.00
2022-08-11T05:36:50.238Z,100.00
2022-08-11T05:42:29.911Z,100.00
2022-08-11T05:47:57.101Z,100.00
2022-08-11T05:53:22.929Z,100.00
2022-08-11T05:58:41.164Z,100.00
2022-08-11T06:04:12.041Z,100.00
2022-08-11T06:09:29.070Z,100.00
2022-08-11T06:14:36.175Z,100.00
2022-08-11T06:19:48.709Z,100.00
2022-08-11T06:25:00.311Z,100.00
2022-08-11T06:30:13.888Z,100.00
2022-08-11T06:35:36.003Z,100.00
2022-08-11T06:41:08.614Z,100.00
2022-08-11T06:46:28.229Z,100.00
2022-08-11T06:51:41.686Z,100.00
2022-08-11T06:57:28.899Z,100.00
2022-08-11T07:02:38.911Z,100.00
2022-08-11T07:09:10.588Z,100.00
2022-08-11T07:14:39.929Z,99.80
2022-08-11T07:20:10.396Z,97.43
2022-08-11T07:25:37.461Z,95.96
2022-08-11T07:30:45.822Z,92.94
2022-08-11T07:35:56.234Z,91.06
2022-08-11T07:41:04.345Z,91.27
2022-08-11T07:46:30.240Z,92.78
2022-08-11T07:51:55.179Z,93.14
2022-08-11T07:57:09.095Z,92.68
2022-08-11T08:02:45.814Z,92.75
2022-08-11T08:08:09.608Z,89.22
2022-08-11T08:13:36.084Z,89.58
2022-08-11T08:18:43.724Z,88.42
2022-08-11T08:23:53.818Z,82.52
2022-08-11T08:29:25.053Z,81.93
2022-08-11T08:34:32.386Z,78.73
2022-08-11T08:39:40.609Z,78.15
2022-08-11T08:44:57.526Z,78.28
2022-08-11T08:50:08.521Z,76.32
2022-08-11T08:55:20.223Z,70.77
2022-08-11T09:00:39.356Z,68.74
2022-08-11T09:05:45.851Z,68.73
2022-08-11T09:11:14.058Z,68.25
2022-08-11T09:16:21.952Z,65.53
2022-08-11T09:21:39.765Z,64.24
2022-08-11T09:27:01.409Z,65.55
2022-08-11T09:32:09.470Z,66.72
2022-08-11T09:37:54.343Z,64.10
2022-08-11T09:43:17.986Z,63.31
2022-08-11T09:48:27.975Z,62.37
2022-08-11T09:53:41.022Z,62.05
2022-08-11T09:58:47.829Z,62.28
2022-08-11T10:04:01.835Z,61.98
2022-08-11T10:09:09.218Z,61.66
2022-08-11T10:14:35.273Z,62.03
2022-08-11T10:19:48.868Z,60.67
2022-08-11T10:25:32.911Z,59.44
2022-08-11T10:30:58.144Z,61.56
2022-08-11T10:36:16.507Z,60.56
2022-08-11T10:42:03.402Z,58.08
2022-08-11T10:47:26.213Z,58.99
2022-08-11T10:52:52.183Z,57.06
2022-08-11T10:58:15.804Z,57.70
2022-08-11T11:03:23.955Z,57.52
2022-08-11T11:08:51.459Z,56.62
2022-08-11T11:14:15.967Z,57.03
2022-08-11T11:19:27.180Z,58.23
2022-08-11T11:24:47.595Z,55.19
2022-08-11T11:30:05.195Z,57.71
2022-08-11T11:35:28.257Z,57.83
2022-08-11T11:40:37.757Z,54.30
2022-08-11T11:45:44.425Z,53.08
2022-08-11T11:50:53.738Z,54.75
2022-08-11T11:56:04.755Z,50.43
2022-08-11T12:01:20.215Z,50.76
2022-08-11T12:06:28.197Z,50.58
2022-08-11T12:11:53.755Z,49.78
2022-08-11T12:17:00.605Z,50.92
2022-08-11T12:22:24.463Z,51.25
2022-08-11T12:27:33.490Z,50.36
2022-08-11T12:32:46.223Z,51.11
2022-08-11T12:38:02.636Z,52.57
2022-08-11T12:43:38.785Z,53.15
2022-08-11T12:49:06.097Z,52.99
2022-08-11T12:54:16.538Z,51.43
2022-08-11T12:59:42.100Z,49.94
2022-08-11T13:04:56.513Z,48.84
2022-08-11T13:10:07.116Z,48.98
2022-08-11T13:15:27.175Z,48.48
2022-08-11T13:20:34.677Z,49.87
2022-08-11T13:25:41.970Z,47.76
2022-08-11T13:31:08.613Z,47.04
2022-08-11T13:36:16.936Z,46.75
2022-08-11T13:41:48.604Z,46.96
2022-08-11T13:46:59.317Z,46.68
2022-08-11T13:52:08.886Z,45.57
2022-08-11T13:58:06.721Z,46.18
2022-08-11T14:02:50.257Z,48.33
2022-08-11T14:08:02.908Z,48.77
2022-08-11T14:13:42.689Z,50.20
2022-08-11T14:19:02.098Z,50.97
2022-08-11T14:24:12.067Z,52.16
2022-08-11T14:29:23.706Z,51.55
2022-08-11T14:34:34.790Z,54.34
2022-08-11T14:39:47.674Z,52.25
2022-08-11T14:45:16.455Z,48.78
2022-08-11T14:50:28.747Z,49.17
2022-08-11T14:55:59.401Z,47.35
2022-08-11T15:01:27.237Z,48.93
2022-08-11T15:06:35.527Z,52.00
2022-08-11T15:11:59.903Z,54.56
2022-08-11T15:17:13.488Z,57.28
2022-08-11T15:22:39.452Z,58.53
2022-08-11T15:28:05.699Z,59.67
2022-08-11T15:33:33.632Z,62.36
2022-08-11T15:38:46.412Z,65.20
2022-08-11T15:44:44.590Z,66.12
2022-08-11T15:50:10.397Z,67.16
2022-08-11T15:55:21.501Z,67.66
2022-08-11T16:00:46.131Z,67.74
2022-08-11T16:05:53.451Z,68.12
2022-08-11T16:11:02.229Z,68.03
2022-08-11T16:16:19.141Z,68.38
2022-08-11T16:21:34.659Z,69.22
2022-08-11T16:27:10.891Z,69.48
2022-08-11T16:32:18.716Z,71.17
2022-08-11T16:37:43.941Z,71.23
2022-08-11T16:43:11.870Z,71.87
2022-08-11T16:48:37.573Z,72.92
2022-08-11T16:54:03.812Z,73.16
2022-08-11T16:59:20.469Z,74.90
2022-08-11T17:05:01.078Z,74.97
2022-08-11T17:10:52.527Z,74.51
2022-08-11T17:16:12.944Z,75.42
2022-08-11T17:21:24.345Z,75.51
2022-08-11T17:26:57.471Z,76.04
2022-08-11T17:32:26.050Z,77.45
2022-08-11T17:37:34.962Z,77.81
2022-08-11T17:42:59.586Z,78.87
2022-08-11T17:48:34.812Z,79.73
2022-08-11T17:54:23.930Z,82.13
2022-08-11T17:59:49.062Z,82.22
2022-08-11T18:04:58.403Z,81.64
2022-08-11T18:10:26.125Z,82.35
2022-08-11T18:15:55.574Z,81.77
2022-08-11T18:21:21.775Z,81.54
2022-08-11T18:26:47.364Z,82.67
2022-08-11T18:32:21.184Z,82.22
2022-08-11T18:37:55.023Z,82.83
2022-08-11T18:43:27.482Z,84.06
2022-08-11T18:48:53.874Z,83.35
2022-08-11T18:54:25.422Z,85.42
2022-08-11T18:59:55.779Z,84.11
2022-08-11T19:06:36.685Z,83.94
2022-08-11T19:11:07.704Z,86.05
2022-08-11T19:16:32.146Z,85.41
2022-08-11T19:21:59.503Z,88.87
2022-08-11T19:27:25.072Z,91.03
2022-08-11T19:32:50.390Z,89.96
2022-08-11T19:38:14.986Z,91.96
2022-08-11T19:43:42.477Z,89.87
2022-08-11T19:49:12.957Z,91.84
2022-08-11T19:54:37.155Z,89.52
2022-08-11T20:00:02.857Z,89.54
2022-08-11T20:05:30.106Z,89.86
2022-08-11T20:10:55.899Z,90.07
2022-08-11T20:16:22.868Z,88.96
2022-08-11T20:21:47.521Z,90.79
2022-08-11T20:27:24.021Z,90.51
2022-08-11T20:32:49.714Z,90.30
2022-08-11T20:38:14.468Z,91.48
2022-08-11T20:44:05.557Z,92.34
2022-08-11T20:49:26.916Z,91.06
2022-08-11T20:55:06.792Z,90.58
2022-08-11T21:00:40.415Z,90.15
2022-08-11T21:06:08.765Z,89.41
2022-08-11T21:11:36.727Z,89.51
2022-08-11T21:17:26.725Z,89.20
2022-08-11T21:22:59.142Z,88.76
2022-08-11T21:28:31.169Z,88.48
2022-08-11T21:33:56.517Z,87.17
2022-08-11T21:39:24.818Z,87.22
2022-08-11T21:44:49.044Z,87.68
2022-08-11T21:50:12.659Z,88.61
2022-08-11T21:55:38.267Z,89.45
2022-08-11T22:01:03.207Z,89.56
2022-08-11T22:06:28.642Z,89.96
2022-08-11T22:12:29.967Z,90.57
2022-08-11T22:17:37.298Z,91.72
2022-08-11T22:23:02.606Z,91.64
2022-08-11T22:28:29.609Z,93.12
2022-08-11T22:34:02.698Z,95.10
2022-08-11T22:39:27.129Z,95.35
2022-08-11T22:44:53.670Z,95.96
2022-08-11T22:50:19.829Z,95.47
2022-08-11T22:55:44.899Z,95.79
2022-08-11T23:01:11.173Z,95.89
2022-08-11T23:06:36.668Z,95.55
2022-08-11T23:12:07.830Z,95.58
2022-08-11T23:17:35.612Z,98.97
2022-08-11T23:22:59.669Z,100.00
2022-08-11T23:28:26.526Z,100.00
2022-08-11T23:33:56.604Z,99.88
2022-08-11T23:39:20.348Z,98.59
2022-08-11T23:44:44.008Z,96.87
2022-08-11T23:50:10.107Z,97.72
2022-08-11T23:55:36.206Z,97.60
